White, Arkansas
Current Conditions -  °F | °C
As of 10:15 AM on Sunday 25 Jan 2015 (Local Time) from KBQP Reporting Station
Clear Clear  
Wind Chill: 56°   Ceiling: Unl
Heat Index: 56°   Visibility: 10mi
Dew Point: 38°   Wind: 12mph
Humidity: 49%   Direction: 240°WSW
Pressure: 29.86"   Gusts: 22mph
Location:  33.1917°N, 91.9836°W
Report Text: KBQP 251615Z AUTO 24010G19KT 10SM CLR 14/03 A2986 RMK AO2 T01360031
Loading
Personal Weather Stations






























Interactive Weather Map New forecast layout! Learn more

10-Day Weather Forecast

Advertisements
Track Severe Weather on mobile